Time;durP1;ratioP1;P1;durP2;ratioP2;P2;SDS_P1;SDS_P2;PMS_P1;PMS_P2;Temp;Humidity;BMP_temperature;BMP_pressure;BME280_temperature;BME280_humidity;BME280_pressure;Samples;Min_cycle;Max_cycle;Signal;HPM_P1;HPM_P2
2022/12/13 00:00:13;;;;;;;78.97;42.60;;;;;;;-7.63;100.00;101168.16;5114422;28;20040;-43
2022/12/13 00:02:38;;;;;;;51.08;18.77;;;;;;;-7.54;100.00;101157.34;5115070;28;20547;-43
2022/12/13 00:05:04;;;;;;;40.97;16.42;;;;;;;-7.54;100.00;101164.84;5114648;28;20055;-45
2022/12/13 00:07:29;;;;;;;75.18;43.50;;;;;;;-7.69;100.00;101165.00;5115403;28;20050;-44
2022/12/13 00:09:54;;;;;;;78.43;46.65;;;;;;;-7.66;100.00;101159.44;5114985;28;20371;-46
2022/12/13 00:12:19;;;;;;;45.42;18.92;;;;;;;-7.57;100.00;101162.91;5114595;28;20024;-42
2022/12/13 00:14:45;;;;;;;78.82;48.05;;;;;;;-7.63;100.00;101155.66;5114836;28;20020;-47
2022/12/13 00:17:10;;;;;;;42.03;18.00;;;;;;;-7.53;100.00;101159.13;5115253;28;20048;-47
2022/12/13 00:19:35;;;;;;;74.60;43.95;;;;;;;-7.70;100.00;101150.69;5093575;28;20387;-46
2022/12/13 00:22:01;;;;;;;72.95;41.83;;;;;;;-7.76;100.00;101150.03;5094483;28;20107;-45
2022/12/13 00:24:26;;;;;;;43.92;17.60;;;;;;;-7.61;100.00;101154.19;5094773;28;20081;-44
2022/12/13 00:26:53;;;;;;;45.15;17.85;;;;;;;-7.63;100.00;101150.66;5093573;28;20386;-44
2022/12/13 00:29:19;;;;;;;67.60;41.63;;;;;;;-7.85;100.00;101144.06;5094590;28;20052;-46
2022/12/13 00:31:44;;;;;;;39.20;16.80;;;;;;;-7.72;100.00;101147.16;5094163;28;20120;-47
2022/12/13 00:34:09;;;;;;;41.97;16.42;;;;;;;-7.73;100.00;101147.88;5093482;28;20028;-47
2022/12/13 00:36:35;;;;;;;69.95;42.03;;;;;;;-7.87;100.00;101146.41;5093957;28;20039;-44
2022/12/13 00:39:00;;;;;;;73.15;42.95;;;;;;;-7.94;100.00;101144.84;5094423;28;20027;-47
2022/12/13 00:41:34;;;;;;;67.32;42.72;;;;;;;-7.90;100.00;101147.69;5093559;28;20070;-44
2022/12/13 00:44:01;;;;;;;42.00;14.35;;;;;;;-7.85;100.00;101149.97;5093662;28;20032;-45
2022/12/13 00:46:28;;;;;;;38.95;15.60;;;;;;;-7.83;100.00;101145.13;5094124;28;20024;-43
2022/12/13 00:48:59;;;;;;;80.50;44.42;;;;;;;-7.91;100.00;101145.88;5092995;28;20032;-46
2022/12/13 00:51:26;;;;;;;49.42;16.30;;;;;;;-7.84;100.00;101143.34;5094296;28;20051;-44
2022/12/13 00:53:52;;;;;;;84.85;49.58;;;;;;;-7.83;100.00;101142.63;5093803;28;20020;-42
2022/12/13 00:56:22;;;;;;;79.18;46.50;;;;;;;-7.83;100.00;101147.63;5093304;28;20062;-46
2022/12/13 00:58:48;;;;;;;52.45;17.67;;;;;;;-7.78;100.00;101146.50;5093654;28;20070;-45
2022/12/13 01:01:15;;;;;;;51.50;17.67;;;;;;;-7.75;100.00;101145.94;5093617;28;20048;-45
2022/12/13 01:03:41;;;;;;;72.70;43.07;;;;;;;-7.95;100.00;101137.19;5092968;28;20111;-42
2022/12/13 01:06:13;;;;;;;42.50;16.95;;;;;;;-7.87;100.00;101138.88;5093986;28;20020;-43
2022/12/13 01:08:39;;;;;;;67.10;41.40;;;;;;;-7.98;100.00;101132.75;5092831;28;20028;-42
2022/12/13 01:11:05;;;;;;;75.65;42.78;;;;;;;-8.07;100.00;101135.84;5093965;28;20030;-43
2022/12/13 01:13:31;;;;;;;56.30;18.77;;;;;;;-7.95;100.00;101143.06;5093559;28;20024;-43
2022/12/13 01:15:56;;;;;;;75.93;45.47;;;;;;;-8.03;100.00;101132.97;5092846;28;20365;-47
2022/12/13 01:18:22;;;;;;;75.65;45.78;;;;;;;-7.94;100.00;101134.84;5093552;28;20036;-43
2022/12/13 01:20:58;;;;;;;45.50;17.65;;;;;;;-7.92;100.00;101132.50;5093308;28;20028;-45
2022/12/13 01:23:23;;;;;;;45.70;18.20;;;;;;;-7.91;100.00;101128.38;5092795;28;20051;-47
2022/12/13 01:25:48;;;;;;;54.40;16.65;;;;;;;-7.90;100.00;101135.16;5093317;28;20479;-48
2022/12/13 01:28:14;;;;;;;71.43;44.40;;;;;;;-8.03;100.00;101133.88;5093518;28;20028;-44
2022/12/13 01:30:39;;;;;;;48.30;17.70;;;;;;;-7.96;100.00;101135.41;5092168;28;20403;-42
2022/12/13 01:33:04;;;;;;;68.10;41.75;;;;;;;-8.12;100.00;101130.34;5093481;28;20095;-42
2022/12/13 01:35:33;;;;;;;71.63;43.20;;;;;;;-8.10;100.00;101131.41;5093340;28;20016;-43
2022/12/13 01:37:58;;;;;;;75.88;45.67;;;;;;;-8.14;100.00;101135.19;5092614;28;20024;-47
2022/12/13 01:40:23;;;;;;;41.80;17.25;;;;;;;-8.04;100.00;101134.59;5093218;28;20028;-43
2022/12/13 01:42:49;;;;;;;47.53;17.42;;;;;;;-8.03;100.00;101136.38;5092829;28;20119;-44
2022/12/13 01:45:22;;;;;;;76.75;45.65;;;;;;;-8.09;100.00;101138.19;5092342;28;20048;-45
2022/12/13 01:47:51;;;;;;;68.95;42.03;;;;;;;-8.14;100.00;101139.31;5092697;28;20491;-44
2022/12/13 01:50:31;;;;;;;40.58;14.32;;;;;;;-8.03;100.00;101137.97;5093207;28;20035;-44
2022/12/13 01:52:58;;;;;;;40.63;17.02;;;;;;;-8.03;100.00;101136.38;5092986;28;20032;-43
2022/12/13 01:55:26;;;;;;;55.57;17.37;;;;;;;-8.03;100.00;101138.88;5092786;28;20051;-44
2022/12/13 01:57:52;;;;;;;;;;;;;;;-8.00;100.00;101139.19;5092395;28;20028;-42
2022/12/13 02:00:17;;;;;;;81.75;46.75;;;;;;;-8.07;100.00;101140.84;5092789;28;19924;-42
2022/12/13 02:02:44;;;;;;;75.57;45.95;;;;;;;-8.12;100.00;101138.75;5092760;28;20100;-45
2022/12/13 02:05:46;;;;;;;76.57;45.67;;;;;;;-8.19;100.00;101140.44;5092384;28;20103;-45
2022/12/13 02:08:14;;;;;;;70.93;44.38;;;;;;;-8.21;100.00;101137.75;5074733;28;20078;-42
2022/12/13 02:10:42;;;;;;;77.32;47.03;;;;;;;-8.20;100.00;101133.63;5092420;28;20475;-44
2022/12/13 02:13:08;;;;;;;49.08;15.88;;;;;;;-8.10;100.00;101141.41;5091963;28;20046;-45
2022/12/13 02:15:41;;;;;;;35.05;15.40;;;;;;;-8.07;100.00;101136.72;5092444;28;20546;-42
2022/12/13 02:18:13;;;;;;;38.45;17.10;;;;;;;-8.12;100.00;101127.84;5092819;28;20039;-44
2022/12/13 02:21:02;;;;;;;76.05;43.17;;;;;;;-8.25;100.00;101130.63;5091568;28;20035;-42
2022/12/13 02:23:48;;;;;;;44.17;18.45;;;;;;;-8.16;100.00;101130.75;5092853;28;20050;-45
2022/12/13 02:26:44;;;;;;;78.40;45.17;;;;;;;-8.15;100.00;101128.41;5092021;28;20058;-43
2022/12/13 02:29:39;;;;;;;47.25;17.88;;;;;;;-8.13;100.00;101131.09;5092740;28;20077;-46
2022/12/13 02:32:17;;;;;;;51.33;17.35;;;;;;;-8.12;100.00;101140.34;5092633;28;20490;-45
2022/12/13 02:35:03;;;;;;;42.88;15.85;;;;;;;-8.12;100.00;101131.25;5091636;28;20070;-42
2022/12/13 02:37:57;;;;;;;77.05;45.97;;;;;;;-8.24;100.00;101134.91;5092589;28;20031;-45
2022/12/13 02:40:33;;;;;;;38.40;15.50;;;;;;;-8.14;100.00;101131.81;5091608;28;20435;-44
2022/12/13 02:43:12;;;;;;;43.28;16.35;;;;;;;-8.14;100.00;101129.31;5092585;28;20028;-46
2022/12/13 02:45:43;;;;;;;47.88;15.88;;;;;;;-8.15;100.00;101122.53;5092439;28;20043;-45
2022/12/13 02:48:12;;;;;;;72.38;42.85;;;;;;;-8.34;100.00;101119.63;5091978;28;20150;-43
2022/12/13 02:50:38;;;;;;;49.38;17.70;;;;;;;-8.22;100.00;101115.06;5092364;28;20035;-47
2022/12/13 02:53:05;;;;;;;53.92;18.55;;;;;;;-8.21;100.00;101122.75;5092498;28;20482;-44
2022/12/13 02:55:34;;;;;;;59.65;19.20;;;;;;;-8.20;100.00;101113.63;5091844;28;20032;-42
2022/12/13 02:57:59;;;;;;;76.32;46.00;;;;;;;-8.19;100.00;101117.91;5092375;28;20424;-43
2022/12/13 03:00:36;;;;;;;48.35;16.40;;;;;;;-8.20;100.00;101108.63;5092083;28;20495;-44
2022/12/13 03:03:38;;;;;;;42.10;16.75;;;;;;;-8.22;100.00;101110.06;5091747;28;20105;-42
2022/12/13 03:06:29;;;;;;;76.80;45.22;;;;;;;-8.27;100.00;101107.09;5092376;28;20032;-45
2022/12/13 03:09:29;;;;;;;43.22;17.17;;;;;;;-8.24;100.00;101106.53;5094191;28;20032;-44
2022/12/13 03:15:12;;;;;;;83.20;47.10;;;;;;;-8.28;100.00;101097.81;5095589;28;20059;-44
2022/12/13 03:17:44;;;;;;;84.65;49.15;;;;;;;-8.30;100.00;101091.72;5095669;28;20024;-42
2022/12/13 03:20:16;;;;;;;51.80;18.48;;;;;;;-8.21;100.00;101106.84;5095701;28;20475;-44
2022/12/13 03:22:41;;;;;;;44.72;17.25;;;;;;;-8.23;100.00;101104.19;5094656;28;20115;-44
2022/12/13 03:25:07;;;;;;;44.50;16.70;;;;;;;-8.25;100.00;101107.25;5095677;28;20048;-45
2022/12/13 03:27:32;;;;;;;48.20;16.42;;;;;;;-8.29;100.00;101104.44;5095375;28;20433;-43
2022/12/13 03:29:58;;;;;;;72.53;42.25;;;;;;;-8.47;100.00;101108.34;5095033;28;20537;-43
2022/12/13 03:32:24;;;;;;;46.05;17.67;;;;;;;-8.35;100.00;101116.25;5095457;28;20468;-46
2022/12/13 03:34:49;;;;;;;44.70;16.88;;;;;;;-8.37;100.00;101115.19;5095038;28;20109;-45
2022/12/13 03:37:14;;;;;;;77.18;45.33;;;;;;;-8.43;100.00;101104.50;5094677;28;20020;-43
2022/12/13 03:39:40;;;;;;;41.40;15.40;;;;;;;-8.38;100.00;101108.41;5094945;28;20032;-43
2022/12/13 03:42:05;;;;;;;71.18;43.70;;;;;;;-8.53;100.00;101106.75;5095212;28;20077;-43
2022/12/13 03:44:30;;;;;;;45.88;17.67;;;;;;;-8.43;100.00;101110.41;5094739;28;20024;-42
2022/12/13 03:46:56;;;;;;;48.55;18.08;;;;;;;-8.43;100.00;101109.50;5095184;28;20028;-43
2022/12/13 03:49:21;;;;;;;45.47;17.15;;;;;;;-8.46;100.00;101105.09;5095105;28;20031;-41
2022/12/13 03:51:46;;;;;;;73.97;43.30;;;;;;;-8.65;100.00;101104.72;5094063;28;20524;-43
2022/12/13 03:54:12;;;;;;;73.95;43.80;;;;;;;-8.56;100.00;101098.94;5095001;28;20156;-46
2022/12/13 03:56:37;;;;;;;74.93;44.25;;;;;;;-8.59;100.00;101101.13;5094654;28;20016;-43
2022/12/13 03:59:02;;;;;;;50.47;16.10;;;;;;;-8.48;100.00;101103.16;5094173;28;20024;-46
2022/12/13 04:01:28;;;;;;;49.33;17.38;;;;;;;-8.43;100.00;101097.00;5094624;28;20253;-44
2022/12/13 04:03:53;;;;;;;78.50;47.88;;;;;;;-8.42;100.00;101101.28;5094789;28;20380;-42
2022/12/13 04:06:18;;;;;;;81.95;48.10;;;;;;;-8.44;100.00;101092.75;5094353;28;20023;-42
2022/12/13 04:08:44;;;;;;;88.28;50.50;;;;;;;-8.30;100.00;101096.72;5094427;28;20024;-44
2022/12/13 04:13:54;;;;;;;54.00;18.83;;;;;;;-8.31;100.00;101100.84;5094495;28;20038;-41
2022/12/13 04:16:20;;;;;;;81.32;48.83;;;;;;;-8.34;100.00;101089.63;5094719;28;20370;-43
2022/12/13 04:18:45;;;;;;;83.53;48.85;;;;;;;-8.30;100.00;101090.16;5093610;28;20019;-41
2022/12/13 04:21:10;;;;;;;39.35;15.93;;;;;;;-8.24;100.00;101092.41;5094566;28;20028;-43
2022/12/13 04:23:35;;;;;;;41.15;16.13;;;;;;;-8.18;100.00;101089.69;5094147;28;20368;-42
2022/12/13 04:26:01;;;;;;;42.83;14.85;;;;;;;-8.19;100.00;101091.28;5093886;28;20030;-44
2022/12/13 04:28:26;;;;;;;43.63;17.33;;;;;;;-8.21;100.00;101086.84;5094592;28;20413;-42
2022/12/13 04:30:52;;;;;;;84.82;49.35;;;;;;;-8.23;100.00;101085.81;5094019;28;20036;-42
2022/12/13 04:33:19;;;;;;;77.47;48.83;;;;;;;-8.22;100.00;101080.06;5093549;28;20028;-45
2022/12/13 04:35:45;;;;;;;45.60;17.33;;;;;;;-8.20;100.00;101083.63;5093987;28;20104;-42
2022/12/13 04:38:11;;;;;;;51.92;16.90;;;;;;;-8.21;100.00;101086.84;5094143;28;20059;-43
2022/12/13 04:40:36;;;;;;;83.40;47.03;;;;;;;-8.35;100.00;101083.75;5092982;28;20060;-43
2022/12/13 04:43:01;;;;;;;48.40;17.92;;;;;;;-8.27;100.00;101085.47;5094268;28;20024;-43
2022/12/13 04:45:27;;;;;;;50.33;16.80;;;;;;;-8.28;100.00;101081.19;5094170;28;20111;-43
2022/12/13 04:47:52;;;;;;;54.50;17.33;;;;;;;-8.31;100.00;101075.84;5093082;28;20459;-42
2022/12/13 04:50:17;;;;;;;38.13;16.98;;;;;;;-8.33;100.00;101072.28;5093992;28;20062;-42
2022/12/13 04:52:43;;;;;;;51.63;16.92;;;;;;;-8.32;100.00;101080.69;5093655;28;20482;-43
2022/12/13 04:55:09;;;;;;;69.30;41.95;;;;;;;-8.45;100.00;101078.47;5093357;28;20028;-44
2022/12/13 04:57:34;;;;;;;76.95;47.08;;;;;;;-8.41;100.00;101068.09;5093565;28;20025;-43
2022/12/13 05:00:00;;;;;;;45.00;16.83;;;;;;;-8.37;100.00;101079.31;5093495;28;20044;-42
2022/12/13 05:02:25;;;;;;;47.55;16.15;;;;;;;-8.38;100.00;101073.41;5093113;28;20020;-43
2022/12/13 05:04:51;;;;;;;44.45;16.83;;;;;;;-8.38;100.00;101080.91;5093457;28;20020;-42
2022/12/13 05:07:16;;;;;;;47.95;16.52;;;;;;;-8.38;100.00;101083.41;5093621;28;20026;-42
2022/12/13 05:09:42;;;;;;;77.70;46.28;;;;;;;-8.47;100.00;101079.94;5092785;28;20024;-45
2022/12/13 05:12:07;;;;;;;44.22;16.55;;;;;;;-8.41;100.00;101078.09;5093740;28;20035;-45
2022/12/13 05:14:32;;;;;;;53.20;16.55;;;;;;;-8.42;100.00;101076.31;5092520;28;20028;-42
2022/12/13 05:16:59;;;;;;;40.45;17.42;;;;;;;-8.40;100.00;101071.47;5093517;28;20035;-44
2022/12/13 05:19:24;;;;;;;44.00;15.70;;;;;;;-8.40;100.00;101066.47;5093521;28;20105;-45
2022/12/13 05:21:50;;;;;;;75.60;46.80;;;;;;;-8.34;100.00;101067.13;5092315;28;20089;-43
2022/12/13 05:24:15;;;;;;;79.47;47.05;;;;;;;-8.47;100.00;101067.44;5093239;28;20112;-41
2022/12/13 05:26:41;;;;;;;44.95;17.30;;;;;;;-8.38;100.00;101065.91;5093208;28;20032;-43
2022/12/13 05:29:06;;;;;;;58.65;18.30;;;;;;;-8.37;100.00;101062.69;5092712;28;20035;-41
2022/12/13 05:31:31;;;;;;;49.90;16.63;;;;;;;-8.36;100.00;101056.97;5092651;28;20024;-41
2022/12/13 05:33:57;;;;;;;77.38;45.53;;;;;;;-8.46;100.00;101059.22;5093243;28;20035;-42
2022/12/13 05:36:24;;;;;;;86.55;48.80;;;;;;;-8.42;100.00;101051.31;5092418;28;20035;-42
2022/12/13 05:38:50;;;;;;;84.15;49.55;;;;;;;-8.36;100.00;101048.59;5092792;28;20020;-41
2022/12/13 05:41:19;;;;;;;91.72;52.17;;;;;;;-8.38;100.00;101043.41;5093223;28;20028;-44
2022/12/13 05:43:44;;;;;;;98.47;54.45;;;;;;;-8.24;100.00;101044.91;5092224;28;20016;-42
2022/12/13 05:46:13;;;;;;;56.47;16.83;;;;;;;-8.29;100.00;101044.41;5093228;28;20471;-43
2022/12/13 05:48:39;;;;;;;94.60;54.10;;;;;;;-8.23;100.00;101043.31;5092770;28;20024;-42
2022/12/13 05:51:04;;;;;;;64.75;18.95;;;;;;;-8.22;100.00;101045.06;5092254;28;20023;-43
2022/12/13 05:53:29;;;;;;;72.57;21.27;;;;;;;-8.22;100.00;101045.06;5093182;28;20024;-42
2022/12/13 05:55:58;;;;;;;56.22;19.60;;;;;;;-8.19;100.00;101047.91;5092505;28;20067;-41
2022/12/13 05:58:24;;;;;;;103.47;59.63;;;;;;;-8.19;100.00;101042.91;5092274;28;20052;-43
2022/12/13 06:00:49;;;;;;;58.85;20.83;;;;;;;-8.19;100.00;101041.28;5092393;28;20086;-42
2022/12/13 06:03:14;;;;;;;55.03;19.75;;;;;;;-8.16;100.00;101038.22;5092934;28;20067;-43
2022/12/13 06:05:41;;;;;;;50.88;18.42;;;;;;;-8.14;100.00;101046.78;5091656;28;20016;-41
2022/12/13 06:08:06;;;;;;;104.05;58.17;;;;;;;-8.10;100.00;101044.75;5092955;28;20029;-41
2022/12/13 06:10:31;;;;;;;61.55;19.23;;;;;;;-8.10;100.00;101049.75;5092646;28;20039;-40
2022/12/13 06:12:56;;;;;;;120.25;62.47;;;;;;;-7.98;100.00;101045.19;5092152;28;20024;-41
2022/12/13 06:15:22;;;;;;;55.08;19.23;;;;;;;-8.04;100.00;101047.03;5092913;28;20024;-44
2022/12/13 06:17:47;;;;;;;102.70;56.53;;;;;;;-8.11;100.00;101050.50;5091860;28;20012;-41
2022/12/13 06:20:12;;;;;;;51.63;20.30;;;;;;;-8.07;100.00;101050.81;5092447;28;20131;-40
2022/12/13 06:22:37;;;;;;;102.45;57.03;;;;;;;-8.08;100.00;101047.44;5092524;28;20016;-41
2022/12/13 06:25:03;;;;;;;54.13;20.05;;;;;;;-8.07;100.00;101059.19;5092142;28;20091;-45
2022/12/13 06:27:29;;;;;;;93.38;55.13;;;;;;;-8.17;100.00;101043.94;5092740;28;20077;-42
2022/12/13 06:29:54;;;;;;;58.08;20.15;;;;;;;-8.09;100.00;101063.16;5092289;28;20023;-42
2022/12/13 06:32:19;;;;;;;91.25;52.13;;;;;;;-8.30;100.00;101050.13;5091853;28;20042;-45
2022/12/13 06:34:45;;;;;;;59.42;19.52;;;;;;;-8.15;100.00;101050.88;5092267;28;20070;-41
2022/12/13 06:37:12;;;;;;;108.53;56.60;;;;;;;-8.15;100.00;101060.00;5092782;28;20448;-42
2022/12/13 06:39:38;;;;;;;48.47;17.23;;;;;;;-8.13;100.00;101061.06;5091625;28;20028;-42
2022/12/13 06:42:05;;;;;;;55.70;19.42;;;;;;;-8.14;100.00;101055.16;5092600;28;20027;-41
2022/12/13 06:44:31;;;;;;;56.78;20.92;;;;;;;-8.15;100.00;101053.38;5096323;28;20119;-42
2022/12/13 06:46:57;;;;;;;44.17;18.15;;;;;;;-8.18;100.00;101052.19;5095725;28;20099;-45
2022/12/13 06:49:22;;;;;;;58.05;20.30;;;;;;;-8.21;100.00;101051.84;5096353;28;20036;-43
2022/12/13 06:51:48;;;;;;;51.83;19.23;;;;;;;-8.25;100.00;101054.75;5096212;28;20360;-42
2022/12/13 06:54:13;;;;;;;88.20;52.03;;;;;;;-8.39;100.00;101054.16;5095695;28;20028;-44
2022/12/13 06:56:38;;;;;;;51.92;18.20;;;;;;;-8.32;100.00;101054.06;5096097;28;20387;-42
2022/12/13 06:59:04;;;;;;;50.40;20.10;;;;;;;-8.32;100.00;101054.06;5096359;28;20027;-42
2022/12/13 07:01:29;;;;;;;87.85;50.15;;;;;;;-8.46;100.00;101045.09;5095201;28;20032;-43
2022/12/13 07:03:55;;;;;;;54.58;18.38;;;;;;;-8.37;100.00;101056.81;5095707;28;20024;-44
2022/12/13 07:06:22;;;;;;;93.40;53.47;;;;;;;-8.55;100.00;101055.75;5095964;28;20028;-42
2022/12/13 07:08:53;;;;;;;89.15;53.00;;;;;;;-8.53;100.00;101051.78;5095144;28;20016;-43
2022/12/13 07:11:21;;;;;;;54.05;19.25;;;;;;;-8.45;100.00;101051.84;5096070;28;20032;-43
2022/12/13 07:13:47;;;;;;;91.30;52.17;;;;;;;-8.50;100.00;101052.13;5095565;28;20016;-40
2022/12/13 07:16:13;;;;;;;91.40;54.22;;;;;;;-8.51;100.00;101055.34;5095069;28;20497;-45
2022/12/13 07:18:38;;;;;;;56.25;18.33;;;;;;;-8.48;100.00;101060.66;5095285;28;20016;-43
2022/12/13 07:21:05;;;;;;;49.78;20.08;;;;;;;-8.48;100.00;101055.66;5095505;28;20028;-41
2022/12/13 07:23:31;;;;;;;103.03;55.67;;;;;;;-8.52;100.00;101043.56;5095716;28;20020;-41
2022/12/13 07:25:56;;;;;;;53.35;19.65;;;;;;;-8.51;100.00;101050.34;5095648;28;20032;-41
2022/12/13 07:28:22;;;;;;;59.33;19.15;;;;;;;-8.49;100.00;101058.91;5094621;28;20361;-44
2022/12/13 07:30:47;;;;;;;46.08;17.52;;;;;;;-8.47;100.00;101059.94;5095049;28;20036;-44
2022/12/13 07:33:13;;;;;;;99.10;55.80;;;;;;;-8.43;100.00;101052.03;5095498;28;20513;-44
2022/12/13 07:35:39;;;;;;;54.72;18.98;;;;;;;-8.42;100.00;101053.81;5094562;28;20589;-41
2022/12/13 07:38:05;;;;;;;91.20;54.15;;;;;;;-8.47;100.00;101053.34;5095570;28;20095;-42
2022/12/13 07:40:35;;;;;;;53.92;18.05;;;;;;;-8.42;100.00;101053.81;5095279;28;20020;-42
2022/12/13 07:43:00;;;;;;;92.47;51.55;;;;;;;-8.52;100.00;101053.56;5094567;28;20460;-42
2022/12/13 07:45:26;;;;;;;53.50;20.40;;;;;;;-8.42;100.00;101046.31;5095145;28;20024;-43
2022/12/13 07:47:52;;;;;;;101.20;57.40;;;;;;;-8.42;100.00;101053.81;5094833;28;20054;-42
2022/12/13 07:50:19;;;;;;;49.20;19.70;;;;;;;-8.39;100.00;101060.75;5094617;28;20463;-41
2022/12/13 07:52:49;;;;;;;58.10;20.52;;;;;;;-8.37;100.00;101067.69;5095017;28;20081;-40
2022/12/13 07:55:15;;;;;;;62.40;19.80;;;;;;;-8.35;100.00;101066.25;5094710;28;20489;-40
2022/12/13 07:57:40;;;;;;;120.32;63.85;;;;;;;-8.23;100.00;101063.31;5094043;28;20030;-42
2022/12/13 08:00:06;;;;;;;114.88;64.30;;;;;;;-8.21;100.00;101067.75;5094648;28;20040;-40
2022/12/13 08:02:32;;;;;;;114.07;64.57;;;;;;;-8.15;100.00;101073.38;5094536;28;20028;-41
2022/12/13 08:04:57;;;;;;;64.07;22.40;;;;;;;-8.12;100.00;101065.31;5094313;28;20020;-41
2022/12/13 08:07:22;;;;;;;53.72;20.85;;;;;;;-8.06;100.00;101058.47;5094908;28;20107;-41
2022/12/13 08:09:47;;;;;;;121.38;68.70;;;;;;;-7.97;100.00;101064.47;5094534;28;20471;-41
2022/12/13 08:12:14;;;;;;;68.03;22.92;;;;;;;-7.90;100.00;101070.13;5094094;28;20032;-41
2022/12/13 08:14:39;;;;;;;63.90;22.85;;;;;;;-7.81;100.00;101069.50;5094354;28;20024;-40
2022/12/13 08:17:04;;;;;;;66.15;22.13;;;;;;;-7.71;100.00;101063.84;5094651;28;20421;-43
2022/12/13 08:19:29;;;;;;;61.85;23.13;;;;;;;-7.62;100.00;101067.31;5094053;28;20022;-41
2022/12/13 08:21:56;;;;;;;62.15;22.80;;;;;;;-7.53;100.00;101071.50;5094154;28;20357;-41
2022/12/13 08:24:23;;;;;;;138.50;72.53;;;;;;;-7.50;100.00;101066.81;5094385;28;20103;-43
2022/12/13 08:26:48;;;;;;;67.37;23.00;;;;;;;-7.40;100.00;101069.56;5094052;28;20471;-40
2022/12/13 08:29:14;;;;;;;136.95;74.75;;;;;;;-7.24;100.00;101073.66;5094452;28;20040;-44
2022/12/13 08:31:39;;;;;;;146.00;77.53;;;;;;;-7.18;100.00;101074.31;5093230;28;20043;-43
2022/12/13 08:34:04;;;;;;;82.50;23.20;;;;;;;-7.14;100.00;101076.38;5094437;28;20387;-43
2022/12/13 08:36:30;;;;;;;141.52;77.53;;;;;;;-7.06;100.00;101073.06;5094476;28;20110;-45
2022/12/13 08:38:56;;;;;;;142.57;79.05;;;;;;;-7.01;100.00;101079.44;5093223;28;20375;-43
2022/12/13 08:41:21;;;;;;;151.68;79.82;;;;;;;-6.83;100.00;101069.53;5094157;28;20360;-41
2022/12/13 08:43:47;;;;;;;144.52;79.15;;;;;;;-6.85;100.00;101073.50;5093815;28;20513;-40
2022/12/13 08:46:13;;;;;;;88.38;27.85;;;;;;;-6.75;100.00;101078.72;5093274;28;20043;-41
2022/12/13 08:48:38;;;;;;;79.35;25.67;;;;;;;-6.70;100.00;101081.69;5093736;28;20452;-42
2022/12/13 08:51:12;;;;;;;143.77;78.45;;;;;;;-6.62;100.00;101085.88;5094171;28;20020;-43
2022/12/13 08:53:38;;;;;;;85.63;27.38;;;;;;;-6.54;100.00;101085.03;5092974;28;20045;-40
2022/12/13 08:56:09;;;;;;;141.93;79.93;;;;;;;-6.41;100.00;101086.28;5093923;28;20024;-42
2022/12/13 08:58:35;;;;;;;80.50;26.65;;;;;;;-6.33;100.00;101096.31;5093436;28;20348;-44
2022/12/13 09:01:03;;;;;;;79.50;23.85;;;;;;;-6.24;100.00;101085.47;5092914;28;20508;-43
2022/12/13 09:03:29;;;;;;;148.02;77.90;;;;;;;-6.15;100.00;101097.28;5093902;28;20043;-42
2022/12/13 09:05:54;;;;;;;81.72;25.95;;;;;;;-6.06;100.00;101097.31;5092934;28;20471;-43
2022/12/13 09:08:19;;;;;;;145.23;78.43;;;;;;;-6.01;100.00;101088.63;5093245;28;20103;-45
2022/12/13 09:10:45;;;;;;;85.72;29.60;;;;;;;-5.91;100.00;101082.88;5093501;28;20498;-43
2022/12/13 09:13:10;;;;;;;79.13;27.25;;;;;;;-5.83;100.00;101092.03;5093800;28;20099;-42
2022/12/13 09:15:37;;;;;;;85.03;29.65;;;;;;;-5.76;100.00;101080.97;5092692;28;20077;-43
2022/12/13 09:18:03;;;;;;;144.95;78.40;;;;;;;-5.74;100.00;101082.03;5093700;28;20035;-44
2022/12/13 09:20:28;;;;;;;94.70;29.95;;;;;;;-5.65;100.00;101087.94;5093338;28;20025;-45
2022/12/13 09:22:54;;;;;;;92.30;28.85;;;;;;;-5.58;100.00;101091.06;5110478;28;20051;-44
2022/12/13 09:25:19;;;;;;;86.40;29.77;;;;;;;-5.53;100.00;101092.41;5113877;28;20020;-42
2022/12/13 09:27:44;;;;;;;147.20;81.30;;;;;;;-5.52;100.00;101091.66;5112754;28;20106;-42
2022/12/13 09:30:14;;;;;;;97.38;32.38;;;;;;;-5.37;100.00;101090.66;5113878;28;20026;-44
2022/12/13 09:32:40;;;;;;;144.77;78.88;;;;;;;-5.37;100.00;101087.22;5113395;28;20016;-44
2022/12/13 09:35:06;;;;;;;153.52;80.32;;;;;;;-5.33;100.00;101087.69;5112764;28;20359;-43
2022/12/13 09:37:32;;;;;;;86.28;29.33;;;;;;;-5.22;100.00;101086.19;5113215;28;20375;-44
2022/12/13 09:39:57;;;;;;;145.07;77.85;;;;;;;-5.23;100.00;101083.53;5113494;28;20016;-43
2022/12/13 09:42:28;;;;;;;163.57;82.50;;;;;;;-5.14;100.00;101096.97;5112634;28;20024;-43
2022/12/13 09:45:02;;;;;;;100.20;30.48;;;;;;;-5.02;100.00;101084.69;5113434;28;20063;-44
2022/12/13 09:47:38;;;;;;;155.50;80.80;;;;;;;-4.97;100.00;101083.50;5113607;28;20031;-45
2022/12/13 09:50:34;;;;;;;141.55;75.38;;;;;;;-4.84;100.00;101090.59;5112816;28;20031;-46
2022/12/13 09:53:01;;;;;;;157.43;81.45;;;;;;;-4.65;100.00;101086.59;5096562;28;20073;-43
2022/12/13 09:55:40;;;;;;;78.18;28.02;;;;;;;-4.59;100.00;101076.19;5113652;28;20031;-44
2022/12/13 09:58:13;;;;;;;147.57;76.75;;;;;;;-4.48;100.00;101074.69;5112705;28;20051;-45
2022/12/13 10:00:39;;;;;;;99.10;31.17;;;;;;;-4.33;100.00;101073.59;5112728;28;20044;-43
2022/12/13 10:03:05;;;;;;;157.13;81.43;;;;;;;-4.15;100.00;101063.44;5112573;28;20024;-44
2022/12/13 10:05:37;;;;;;;147.32;76.13;;;;;;;-3.97;100.00;101067.63;5113343;28;20020;-43
2022/12/13 10:08:15;;;;;;;142.82;75.15;;;;;;;-3.80;100.00;101063.25;5113384;28;20089;-44
2022/12/13 10:10:42;;;;;;;138.07;71.40;;;;;;;-3.74;100.00;101062.94;5112114;28;20027;-43
2022/12/13 10:13:16;;;;;;;133.13;70.75;;;;;;;-3.74;100.00;101063.81;5113167;28;20051;-43
2022/12/13 10:15:46;;;;;;;152.68;76.57;;;;;;;-3.67;100.00;101068.66;5112826;28;20106;-44
2022/12/13 10:18:20;;;;;;;137.15;73.53;;;;;;;-3.61;100.00;101049.81;5116288;28;20090;-43
2022/12/13 10:20:48;;;;;;;133.52;71.40;;;;;;;-3.59;100.00;101043.25;5117079;28;20027;-45
2022/12/13 10:23:13;;;;;;;148.05;75.57;;;;;;;-3.44;100.00;101044.63;5117482;28;20030;-44
2022/12/13 10:25:55;;;;;;;149.70;77.53;;;;;;;-3.42;100.00;101052.31;5116191;28;20443;-46
2022/12/13 10:28:30;;;;;;;148.70;74.95;;;;;;;-3.46;100.00;101051.16;5117362;28;20051;-45
2022/12/13 10:30:56;;;;;;;158.05;76.93;;;;;;;-3.48;100.00;101042.59;5117124;28;20016;-42
2022/12/13 10:33:35;;;;;;;160.40;77.55;;;;;;;-3.45;100.00;101037.81;5116666;28;20043;-45
2022/12/13 10:36:13;;;;;;;143.88;72.80;;;;;;;-3.56;100.00;101038.50;5117113;28;20165;-46
2022/12/13 10:38:41;;;;;;;107.13;34.92;;;;;;;-3.41;100.00;101039.84;5115849;28;20024;-45
2022/12/13 10:41:24;;;;;;;;;;;;;;;-3.33;100.00;101027.91;5117513;28;20028;-47
2022/12/13 10:44:08;;;;;;;173.50;86.20;;;;;;;-3.23;100.00;101030.50;5116753;28;19926;-47
2022/12/13 10:46:34;;;;;;;176.85;90.30;;;;;;;-3.20;100.00;101023.22;5115729;28;20371;-45
2022/12/13 10:49:00;;;;;;;165.85;82.22;;;;;;;-3.18;100.00;101024.22;5116752;28;20057;-43
2022/12/13 10:51:26;;;;;;;159.25;78.85;;;;;;;-3.05;100.00;101020.25;5117023;28;20054;-46
2022/12/13 10:53:55;;;;;;;176.50;86.60;;;;;;;-2.87;100.00;101021.84;5115834;28;20027;-46
2022/12/13 10:56:31;;;;;;;162.90;77.78;;;;;;;-2.84;100.00;101006.09;5116803;28;20031;-47
2022/12/13 10:59:11;;;;;;;166.55;76.50;;;;;;;-2.67;100.00;101003.38;5116610;28;20023;-44
2022/12/13 11:01:36;;;;;;;253.57;103.80;;;;;;;-2.46;100.00;100995.84;5115895;28;20047;-45
2022/12/13 11:04:18;;;;;;;163.05;76.53;;;;;;;-2.36;100.00;100998.38;5116698;28;20027;-46
2022/12/13 11:06:46;;;;;;;163.40;79.65;;;;;;;-2.13;100.00;100989.34;5115356;28;20539;-44
2022/12/13 11:09:25;;;;;;;149.07;68.47;;;;;;;-2.13;99.40;100980.84;5116568;28;20073;-44